Time;durP1;ratioP1;P1;durP2;ratioP2;P2;SDS_P1;SDS_P2;PMS_P1;PMS_P2;Temp;Humidity;BMP_temperature;BMP_pressure;BME280_temperature;BME280_humidity;BME280_pressure;Samples;Min_cycle;Max_cycle;Signal;HPM_P1;HPM_P2
2021/09/18 00:00:08;;;;;;;0.10;0.10;;;;;;;18.85;62.77;101735.91;5020421;28;20021;-83
2021/09/18 00:02:35;;;;;;;0.50;0.50;;;;;;;18.88;62.80;101733.13;5052894;28;20048;-82
2021/09/18 00:05:02;;;;;;;0.47;0.40;;;;;;;18.92;63.11;101729.41;5052969;28;20036;-82
2021/09/18 00:07:29;;;;;;;0.00;0.00;;;;;;;18.95;63.10;101738.28;5052844;28;20033;-83
2021/09/18 00:10:01;;;;;;;0.30;0.30;;;;;;;19.02;62.76;101739.78;5052921;28;20029;-90
2021/09/18 00:12:27;;;;;;;0.68;0.68;;;;;;;19.01;62.43;101733.50;5052499;28;20021;-83
2021/09/18 00:14:53;;;;;;;0.10;0.10;;;;;;;19.01;62.75;101733.50;5052953;28;20488;-83
2021/09/18 00:17:20;;;;;;;0.40;0.40;;;;;;;19.04;62.57;101736.09;5033528;28;20384;-85
2021/09/18 00:19:46;;;;;;;0.20;0.20;;;;;;;19.02;62.63;101735.28;5046905;28;20025;-82
2021/09/18 00:22:13;;;;;;;0.40;0.15;;;;;;;19.03;62.29;101737.03;5052841;28;20035;-83
2021/09/18 00:24:39;;;;;;;0.10;0.10;;;;;;;18.96;62.25;101745.41;5052295;28;20497;-83
2021/09/18 00:27:06;;;;;;;0.20;0.20;;;;;;;18.95;62.76;101738.28;5052217;28;20037;-84
2021/09/18 00:29:32;;;;;;;0.10;0.10;;;;;;;18.91;62.58;101740.22;5054362;28;20040;-82
2021/09/18 00:31:59;;;;;;;0.20;0.20;;;;;;;18.88;62.47;101732.25;5041144;28;20507;-83
2021/09/18 00:34:25;;;;;;;0.10;0.10;;;;;;;18.82;62.29;101735.19;5024333;28;20037;-81
2021/09/18 00:36:51;;;;;;;0.43;0.43;;;;;;;18.77;62.83;101746.13;5028952;28;20081;-86
2021/09/18 00:39:18;;;;;;;0.82;0.82;;;;;;;18.73;62.29;101740.00;5042444;28;20033;-84
2021/09/18 00:41:44;;;;;;;0.22;0.22;;;;;;;18.66;62.27;101738.47;5055709;28;20057;-84
2021/09/18 00:44:17;;;;;;;0.88;0.88;;;;;;;18.65;62.10;101744.78;5055905;28;20025;-83
2021/09/18 00:46:46;;;;;;;0.20;0.20;;;;;;;18.57;62.52;101744.22;5055923;28;20438;-85
2021/09/18 00:49:13;;;;;;;0.10;0.10;;;;;;;18.54;62.33;101739.84;5055821;28;20109;-82
2021/09/18 00:51:40;;;;;;;0.10;0.10;;;;;;;18.49;62.29;101732.91;5055676;28;20464;-82
2021/09/18 00:54:07;;;;;;;0.10;0.10;;;;;;;18.45;62.30;101739.34;5055706;28;20029;-82
2021/09/18 00:56:35;;;;;;;0.03;0.03;;;;;;;18.40;62.12;101740.38;5055543;28;20025;-82
2021/09/18 00:59:01;;;;;;;0.15;0.15;;;;;;;18.35;62.14;101737.00;5055952;28;20060;-82
2021/09/18 01:01:28;;;;;;;0.00;0.00;;;;;;;18.28;62.26;101735.50;5055350;28;20078;-83
2021/09/18 01:03:54;;;;;;;0.20;0.20;;;;;;;18.26;62.28;101732.84;5055468;28;20036;-84
2021/09/18 01:06:21;;;;;;;0.30;0.30;;;;;;;18.22;62.39;101739.28;5055470;28;20107;-82
2021/09/18 01:08:53;;;;;;;0.05;0.05;;;;;;;18.22;62.33;101738.41;5055413;28;20025;-89
2021/09/18 01:11:20;;;;;;;1.80;0.60;;;;;;;18.16;62.55;101735.97;5055412;28;20017;-84
2021/09/18 01:13:46;;;;;;;0.10;0.10;;;;;;;18.11;62.71;101737.00;5055234;28;20109;-82
2021/09/18 01:16:12;;;;;;;0.47;0.47;;;;;;;18.11;62.29;101738.81;5055549;28;20052;-82
2021/09/18 01:18:39;;;;;;;0.10;0.10;;;;;;;18.07;62.30;101740.72;5054951;28;20032;-82
2021/09/18 01:21:08;;;;;;;0.43;0.43;;;;;;;18.06;62.33;101738.97;5055380;28;20033;-84
2021/09/18 01:23:34;;;;;;;0.10;0.10;;;;;;;18.04;62.45;101745.31;5055188;28;20029;-83
2021/09/18 01:26:01;;;;;;;0.73;0.57;;;;;;;18.02;62.85;101747.19;5055267;28;20037;-86
2021/09/18 01:28:27;;;;;;;0.20;0.20;;;;;;;17.99;62.33;101736.59;5055203;28;20056;-87
2021/09/18 01:30:54;;;;;;;0.10;0.10;;;;;;;17.98;62.50;101733.03;5055338;28;20037;-84
2021/09/18 01:33:21;;;;;;;0.10;0.10;;;;;;;17.95;62.57;101736.69;5055150;28;20037;-86
2021/09/18 01:35:47;;;;;;;0.30;0.30;;;;;;;17.94;62.98;101734.06;5055612;28;20029;-85
2021/09/18 01:38:14;;;;;;;0.20;0.20;;;;;;;17.91;62.61;101728.78;5056027;28;20075;-87
2021/09/18 01:40:42;;;;;;;0.10;0.10;;;;;;;17.90;63.02;101740.44;5051131;28;20021;-83
2021/09/18 01:43:10;;;;;;;0.10;0.10;;;;;;;17.86;63.46;101728.97;5047788;28;20116;-84
2021/09/18 01:45:37;;;;;;;0.13;0.13;;;;;;;17.81;63.38;101733.63;5055857;28;20040;-82
2021/09/18 01:48:07;;;;;;;0.10;0.10;;;;;;;17.78;63.15;101726.56;5054818;28;20024;-82
2021/09/18 01:50:41;;;;;;;0.40;0.40;;;;;;;17.76;63.47;101724.88;5054761;28;20030;-84
2021/09/18 01:53:09;;;;;;;0.10;0.10;;;;;;;17.66;63.34;101723.44;5055366;28;20029;-83
2021/09/18 01:55:37;;;;;;;0.10;0.10;;;;;;;17.67;63.35;101718.03;5055055;28;20029;-85
2021/09/18 01:58:04;;;;;;;0.10;0.10;;;;;;;17.62;63.38;101725.38;5054921;28;20017;-86
2021/09/18 02:00:31;;;;;;;0.10;0.10;;;;;;;17.59;63.17;101720.09;5054254;28;20024;-85
2021/09/18 02:02:58;;;;;;;0.00;0.00;;;;;;;17.55;63.21;101721.16;5054261;28;20422;-83
2021/09/18 02:05:26;;;;;;;0.10;0.10;;;;;;;17.56;63.43;101725.59;5054595;28;20503;-83
2021/09/18 02:07:54;;;;;;;0.10;0.10;;;;;;;17.53;63.33;101718.50;5054113;28;20480;-82
2021/09/18 02:10:23;;;;;;;0.10;0.10;;;;;;;17.52;63.21;101727.50;5054385;28;20028;-82
2021/09/18 02:12:49;;;;;;;0.20;0.20;;;;;;;17.51;63.40;101724.84;5053884;28;20037;-83
2021/09/18 02:15:17;;;;;;;0.00;0.00;;;;;;;17.49;63.43;101722.22;5053239;28;20033;-85
2021/09/18 02:17:44;;;;;;;0.00;0.00;;;;;;;17.47;63.47;101718.75;5041924;28;20021;-84
2021/09/18 02:20:14;;;;;;;1.65;1.55;;;;;;;17.46;63.16;101719.66;5053588;28;20028;-83
2021/09/18 02:22:41;;;;;;;0.10;0.10;;;;;;;17.43;63.19;101712.63;5028778;28;20040;-84
2021/09/18 02:25:10;;;;;;;0.10;0.10;;;;;;;17.41;63.38;101717.16;5045785;28;20025;-83
2021/09/18 02:27:36;;;;;;;2.10;1.95;;;;;;;17.40;63.34;101712.72;5053908;28;20025;-86
2021/09/18 02:30:04;;;;;;;0.10;0.10;;;;;;;17.42;63.31;101705.50;5053855;28;20459;-85
2021/09/18 02:32:34;;;;;;;0.30;0.30;;;;;;;17.40;63.06;101711.84;5053830;28;20056;-85
2021/09/18 02:35:02;;;;;;;0.10;0.10;;;;;;;17.38;63.08;101716.38;5054402;28;20028;-84
2021/09/18 02:37:29;;;;;;;0.20;0.20;;;;;;;17.37;63.18;101707.47;5036466;28;20039;-85
2021/09/18 02:39:55;;;;;;;0.10;0.10;;;;;;;17.36;63.39;101715.53;5053536;28;20036;-83
2021/09/18 02:42:22;;;;;;;0.20;0.20;;;;;;;17.33;63.50;101710.31;5053495;28;20052;-85
2021/09/18 02:44:48;;;;;;;0.10;0.10;;;;;;;17.29;63.32;101706.84;5053821;28;20087;-83
2021/09/18 02:47:14;;;;;;;0.30;0.30;;;;;;;17.27;63.67;101711.38;5053451;28;20475;-84
2021/09/18 02:49:41;;;;;;;0.68;0.68;;;;;;;17.24;63.27;101701.63;5053651;28;20098;-85
2021/09/18 02:52:07;;;;;;;0.20;0.20;;;;;;;17.22;63.09;101702.63;5052791;28;20111;-82
2021/09/18 02:54:34;;;;;;;0.20;0.20;;;;;;;17.19;63.15;101702.75;5053178;28;20021;-84
2021/09/18 02:57:00;;;;;;;0.60;0.60;;;;;;;17.18;63.34;101695.63;5053280;28;20036;-84
2021/09/18 02:59:26;;;;;;;0.10;0.10;;;;;;;17.16;63.43;101702.84;5053215;28;20029;-83
2021/09/18 03:01:53;;;;;;;0.45;0.45;;;;;;;17.12;63.33;101708.31;5053190;28;20466;-84
2021/09/18 03:04:19;;;;;;;0.40;0.40;;;;;;;17.09;63.64;101710.22;5053277;28;20432;-83
2021/09/18 03:06:46;;;;;;;0.10;0.10;;;;;;;17.07;63.27;101712.94;5053169;28;20124;-84
2021/09/18 03:09:12;;;;;;;0.10;0.10;;;;;;;17.05;63.61;101706.75;5053370;28;20033;-85
2021/09/18 03:11:38;;;;;;;0.10;0.10;;;;;;;17.00;63.58;101703.38;5052997;28;20025;-83
2021/09/18 03:14:05;;;;;;;0.20;0.20;;;;;;;16.97;63.16;101708.81;5053160;28;20028;-83
2021/09/18 03:16:31;;;;;;;0.03;0.03;;;;;;;16.94;63.33;101703.56;5053211;28;20086;-85
2021/09/18 03:18:57;;;;;;;0.08;0.08;;;;;;;16.93;63.49;101707.16;5053197;28;20029;-83
2021/09/18 03:21:24;;;;;;;0.10;0.10;;;;;;;16.91;63.31;101714.31;5053539;28;20060;-85
2021/09/18 03:23:50;;;;;;;0.10;0.10;;;;;;;16.90;63.40;101712.59;5052765;28;20033;-84
2021/09/18 03:26:17;;;;;;;0.10;0.10;;;;;;;16.89;63.47;101716.19;5053184;28;20025;-86
2021/09/18 03:28:43;;;;;;;0.03;0.03;;;;;;;16.88;63.29;101712.63;5052871;28;20160;-86
2021/09/18 03:31:09;;;;;;;0.20;0.20;;;;;;;16.90;63.36;101708.09;5051876;28;20033;-87
2021/09/18 03:33:36;;;;;;;0.10;0.10;;;;;;;16.90;63.23;101713.47;5052900;28;20028;-82
2021/09/18 03:36:02;;;;;;;0.10;0.10;;;;;;;16.90;63.21;101715.28;5053113;28;20116;-87
2021/09/18 03:38:28;;;;;;;0.10;0.10;;;;;;;16.92;63.50;101713.44;5053129;28;20029;-83
2021/09/18 03:40:54;;;;;;;0.05;0.05;;;;;;;16.92;63.07;101717.00;5045179;28;20481;-82
2021/09/18 03:43:21;;;;;;;0.10;0.10;;;;;;;16.95;63.44;101724.06;5036620;28;20124;-82
2021/09/18 03:45:47;;;;;;;0.17;0.17;;;;;;;16.96;63.06;101720.47;5031960;28;20487;-85
2021/09/18 03:48:14;;;;;;;0.20;0.20;;;;;;;16.98;63.03;101716.81;5040852;28;20025;-83
2021/09/18 03:50:40;;;;;;;0.10;0.10;;;;;;;17.03;63.38;101713.94;5039738;28;20036;-83
2021/09/18 03:53:06;;;;;;;0.05;0.05;;;;;;;17.08;63.36;101717.34;5045490;28;20459;-83
2021/09/18 03:55:33;;;;;;;0.10;0.10;;;;;;;17.14;63.65;101721.63;5052965;28;20052;-86
2021/09/18 03:57:59;;;;;;;0.10;0.10;;;;;;;17.19;63.70;101714.31;5048159;28;20098;-84
2021/09/18 04:00:25;;;;;;;0.10;0.10;;;;;;;17.22;63.81;101711.56;5033633;28;20539;-82
2021/09/18 04:02:52;;;;;;;1.13;0.47;;;;;;;17.24;63.75;101703.47;5035271;28;20108;-83
2021/09/18 04:05:18;;;;;;;0.10;0.10;;;;;;;17.25;63.82;101705.22;5048861;28;20033;-83
2021/09/18 04:07:44;;;;;;;0.17;0.17;;;;;;;17.25;63.62;101708.75;5040111;28;20083;-85
2021/09/18 04:10:11;;;;;;;0.10;0.10;;;;;;;17.21;63.46;101709.78;5049316;28;20510;-84
2021/09/18 04:12:38;;;;;;;0.00;0.00;;;;;;;17.21;63.97;101714.25;5032532;28;20108;-83
2021/09/18 04:15:05;;;;;;;0.10;0.10;;;;;;;17.19;63.67;101714.31;5049992;28;20048;-83
2021/09/18 04:17:31;;;;;;;0.10;0.10;;;;;;;17.17;63.66;101704.59;5041200;28;20063;-83
2021/09/18 04:19:57;;;;;;;0.47;0.47;;;;;;;17.13;63.55;101719.88;5024309;28;20041;-84
2021/09/18 04:22:23;;;;;;;0.10;0.10;;;;;;;17.06;63.79;101713.88;5041605;28;20396;-85
2021/09/18 04:24:50;;;;;;;0.20;0.20;;;;;;;17.05;63.89;101716.59;5056235;28;20032;-82
2021/09/18 04:27:17;;;;;;;0.10;0.10;;;;;;;17.05;63.84;101720.16;5043715;28;20030;-83
2021/09/18 04:29:43;;;;;;;0.10;0.10;;;;;;;17.05;63.34;101722.81;5049655;28;20380;-83
2021/09/18 04:32:09;;;;;;;0.10;0.10;;;;;;;17.06;63.27;101713.88;5046242;28;20025;-84
2021/09/18 04:34:35;;;;;;;0.55;0.55;;;;;;;17.05;63.68;101716.59;5056242;28;20460;-87
2021/09/18 04:37:01;;;;;;;0.20;0.20;;;;;;;17.05;63.81;101733.53;5041492;28;20172;-83
2021/09/18 04:39:28;;;;;;;0.00;0.00;;;;;;;17.07;63.33;101725.44;5030911;28;20136;-83
2021/09/18 04:41:54;;;;;;;0.10;0.10;;;;;;;17.06;63.71;101724.56;5051340;28;20029;-82
2021/09/18 04:44:20;;;;;;;0.82;0.82;;;;;;;17.08;63.68;101727.19;5054922;28;20029;-83
2021/09/18 04:46:46;;;;;;;0.10;0.10;;;;;;;17.06;63.48;101719.22;5056052;28;20031;-83
2021/09/18 04:49:13;;;;;;;0.10;0.10;;;;;;;17.06;63.16;101727.25;5039989;28;20037;-83
2021/09/18 04:51:39;;;;;;;0.10;0.10;;;;;;;17.06;63.61;101729.94;5036254;28;20029;-82
2021/09/18 04:54:05;;;;;;;0.10;0.10;;;;;;;17.05;63.36;101727.31;5049061;28;20031;-88
2021/09/18 04:56:31;;;;;;;0.10;0.10;;;;;;;17.05;63.57;101728.16;5040386;28;20021;-83
2021/09/18 04:58:58;;;;;;;0.10;0.10;;;;;;;17.08;63.16;101730.72;5040066;28;20045;-82
2021/09/18 05:01:24;;;;;;;0.20;0.20;;;;;;;17.09;63.33;101735.16;5035804;28;20034;-83
2021/09/18 05:03:51;;;;;;;0.10;0.10;;;;;;;17.09;63.51;101729.81;5049194;28;20120;-83
2021/09/18 05:06:17;;;;;;;0.10;0.10;;;;;;;17.08;63.25;101738.78;5051102;28;20095;-83
2021/09/18 05:08:43;;;;;;;0.30;0.30;;;;;;;17.11;63.18;101737.81;5044067;28;20422;-83
2021/09/18 05:11:09;;;;;;;0.10;0.10;;;;;;;17.13;63.61;101733.28;5035304;28;20041;-82
2021/09/18 05:13:35;;;;;;;0.10;0.10;;;;;;;17.14;63.51;101738.56;5027865;28;20473;-82
2021/09/18 05:16:01;;;;;;;0.10;0.10;;;;;;;17.17;63.36;101740.28;5053637;28;20060;-82
2021/09/18 05:18:30;;;;;;;0.10;0.10;;;;;;;17.19;63.49;101746.44;5046873;28;20044;-83
2021/09/18 05:20:56;;;;;;;0.10;0.10;;;;;;;17.23;63.37;101741.88;5052290;28;20087;-83
2021/09/18 05:23:23;;;;;;;0.10;0.10;;;;;;;17.26;63.77;101752.50;5029163;28;20041;-83
2021/09/18 05:25:49;;;;;;;0.20;0.20;;;;;;;17.30;63.49;101749.66;5043108;28;20108;-84
2021/09/18 05:28:15;;;;;;;0.10;0.10;;;;;;;17.36;63.96;101758.41;5050339;28;20468;-82
2021/09/18 05:30:41;;;;;;;0.10;0.10;;;;;;;17.41;63.40;101762.69;5043110;28;20472;-91
2021/09/18 05:33:07;;;;;;;0.10;0.10;;;;;;;17.45;63.36;101753.59;5049693;28;20571;-91
2021/09/18 05:35:33;;;;;;;0.10;0.10;;;;;;;17.51;63.66;101757.00;5042954;28;20071;-91
2021/09/18 05:38:00;;;;;;;0.10;0.10;;;;;;;17.55;63.38;101759.53;5054037;28;20396;-89
2021/09/18 05:40:26;;;;;;;0.20;0.20;;;;;;;17.59;63.75;101754.94;5047984;28;20026;-82
2021/09/18 05:42:54;;;;;;;0.10;0.10;;;;;;;17.65;63.78;101761.91;5034991;28;20087;-83
2021/09/18 05:45:20;;;;;;;0.10;0.10;;;;;;;17.67;63.73;101763.59;5025069;28;20034;-87
2021/09/18 05:47:46;;;;;;;0.10;0.10;;;;;;;17.71;63.50;101765.22;5019722;28;20054;-84
2021/09/18 05:50:13;;;;;;;0.10;0.10;;;;;;;17.76;63.47;101763.25;5049579;28;20029;-84
2021/09/18 05:52:39;;;;;;;0.10;0.10;;;;;;;17.83;63.36;101763.94;5054976;28;20083;-83
2021/09/18 05:55:06;;;;;;;0.32;0.32;;;;;;;17.89;63.74;101770.84;5055119;28;20431;-84
2021/09/18 05:57:33;;;;;;;1.30;0.73;;;;;;;17.95;63.23;101770.66;5048222;28;20115;-82
2021/09/18 05:59:59;;;;;;;0.20;0.20;;;;;;;17.99;63.49;101766.94;5038555;28;20484;-84
2021/09/18 06:02:25;;;;;;;0.10;0.10;;;;;;;18.05;63.53;101765.84;5028369;28;20052;-82
2021/09/18 06:04:54;;;;;;;0.30;0.30;;;;;;;18.10;63.24;101778.16;5055719;28;20032;-83
2021/09/18 06:07:20;;;;;;;1.45;0.43;;;;;;;18.16;63.32;101776.19;5055622;28;20071;-84
2021/09/18 06:09:46;;;;;;;0.88;0.88;;;;;;;18.17;63.52;101773.44;5039409;28;20034;-83
2021/09/18 06:12:12;;;;;;;0.10;0.10;;;;;;;18.21;63.23;101771.53;5033318;28;20036;-88
2021/09/18 06:14:38;;;;;;;0.10;0.10;;;;;;;18.24;63.18;101779.44;5033285;28;20032;-83
2021/09/18 06:17:04;;;;;;;0.10;0.10;;;;;;;18.27;63.06;101784.72;5054618;28;20025;-82
2021/09/18 06:19:30;;;;;;;0.10;0.10;;;;;;;18.29;63.15;101781.97;5035605;28;20156;-82
2021/09/18 06:21:56;;;;;;;0.10;0.10;;;;;;;18.31;63.20;101783.66;5035327;28;20030;-82
2021/09/18 06:24:23;;;;;;;0.10;0.10;;;;;;;18.34;63.12;101788.88;5030551;28;20081;-88
2021/09/18 06:26:50;;;;;;;0.10;0.10;;;;;;;18.38;63.21;101781.59;5031934;28;20034;-84
2021/09/18 06:29:16;;;;;;;0.10;0.10;;;;;;;18.42;63.22;101788.63;5034416;28;20101;-89
2021/09/18 06:31:42;;;;;;;0.10;0.10;;;;;;;18.43;63.68;101787.69;5033651;28;20037;-84
2021/09/18 06:34:08;;;;;;;0.20;0.20;;;;;;;18.47;63.41;101786.63;5023191;28;20032;-83
2021/09/18 06:36:34;;;;;;;0.13;0.13;;;;;;;18.52;63.31;101789.16;5035851;28;20025;-84
2021/09/18 06:39:00;;;;;;;0.60;0.60;;;;;;;18.56;63.17;101793.47;5043238;28;20036;-83
2021/09/18 06:41:27;;;;;;;0.30;0.30;;;;;;;18.59;63.22;101785.28;5052821;28;20106;-83
2021/09/18 06:43:53;;;;;;;1.17;0.40;;;;;;;18.61;63.44;101790.59;5034459;28;20040;-82
2021/09/18 06:46:19;;;;;;;0.10;0.10;;;;;;;18.63;62.92;101786.03;5037216;28;20112;-83
2021/09/18 06:48:45;;;;;;;0.05;0.05;;;;;;;18.63;63.28;101789.63;5042023;28;20052;-90
2021/09/18 06:51:13;;;;;;;0.10;0.10;;;;;;;18.68;63.20;101790.31;5046132;28;20021;-84
2021/09/18 06:53:40;;;;;;;0.10;0.10;;;;;;;18.71;63.25;101795.53;5043313;28;20113;-83
2021/09/18 06:56:06;;;;;;;0.20;0.20;;;;;;;18.78;63.25;101793.50;5035256;28;20036;-83
2021/09/18 06:58:32;;;;;;;0.10;0.10;;;;;;;18.83;63.31;101798.66;5030169;28;20129;-82
2021/09/18 07:00:58;;;;;;;0.40;0.40;;;;;;;18.86;63.15;101795.88;5029861;28;20026;-82
2021/09/18 07:03:25;;;;;;;0.10;0.10;;;;;;;18.89;63.02;101803.81;5035317;28;20030;-83
2021/09/18 07:05:52;;;;;;;0.10;0.10;;;;;;;18.91;63.50;101807.34;5020915;28;20022;-84
2021/09/18 07:08:18;;;;;;;0.10;0.10;;;;;;;18.93;63.31;101802.78;5032304;28;20052;-84
2021/09/18 07:10:44;;;;;;;0.70;0.70;;;;;;;18.98;63.48;101805.28;5039760;28;20025;-82
2021/09/18 07:13:10;;;;;;;0.13;0.13;;;;;;;18.99;63.33;101805.25;5051077;28;20059;-83
2021/09/18 07:15:36;;;;;;;0.10;0.10;;;;;;;19.03;63.10;101801.47;5025358;28;20414;-83
2021/09/18 07:18:02;;;;;;;0.10;0.10;;;;;;;19.06;63.56;101801.34;5042797;28;20052;-84
2021/09/18 07:20:29;;;;;;;0.80;0.65;;;;;;;19.11;63.32;101803.00;5040219;28;20034;-83
2021/09/18 07:22:55;;;;;;;0.40;0.40;;;;;;;19.17;62.98;101800.06;5021512;28;20034;-85
2021/09/18 07:25:23;;;;;;;0.73;0.73;;;;;;;19.24;63.28;101804.25;5019248;28;20033;-83
2021/09/18 07:27:49;;;;;;;0.10;0.10;;;;;;;19.31;62.93;101805.72;5014990;28;20495;-83
2021/09/18 07:30:16;;;;;;;0.30;0.30;;;;;;;19.37;63.37;101804.59;5015314;28;20033;-82
2021/09/18 07:32:42;;;;;;;3.25;0.90;;;;;;;19.40;63.25;101805.34;5015051;28;20112;-83
2021/09/18 07:35:09;;;;;;;0.40;0.40;;;;;;;19.47;63.00;101805.09;5039794;28;20033;-85
2021/09/18 07:37:36;;;;;;;0.40;0.40;;;;;;;19.53;62.62;101799.47;5055695;28;20033;-86
2021/09/18 07:40:05;;;;;;;0.10;0.10;;;;;;;19.58;63.06;101801.94;5032178;28;20022;-85
2021/09/18 07:42:32;;;;;;;9.30;0.63;;;;;;;19.62;63.27;101803.56;5017813;28;20080;-83
2021/09/18 07:44:58;;;;;;;0.63;0.63;;;;;;;19.67;63.20;101809.63;5050758;28;20033;-86
2021/09/18 07:47:24;;;;;;;0.45;0.45;;;;;;;19.68;63.42;101811.38;5038114;28;20026;-82
2021/09/18 07:49:50;;;;;;;0.10;0.10;;;;;;;19.70;63.38;101814.84;5018180;28;20040;-84
2021/09/18 07:52:17;;;;;;;1.08;0.57;;;;;;;19.75;62.92;101820.03;5017726;28;20069;-83
2021/09/18 07:54:44;;;;;;;0.45;0.45;;;;;;;19.79;62.76;101821.63;5054859;28;20037;-90
2021/09/18 07:57:10;;;;;;;0.10;0.10;;;;;;;19.83;63.63;101820.63;5052043;28;20029;-86
2021/09/18 07:59:36;;;;;;;1.35;0.85;;;;;;;19.90;62.60;101821.22;5029695;28;20061;-89
2021/09/18 08:02:03;;;;;;;0.30;0.30;;;;;;;19.94;63.52;101823.72;5029463;28;20473;-91
2021/09/18 08:04:29;;;;;;;0.30;0.30;;;;;;;20.00;63.36;101820.75;5020747;28;20029;-90
2021/09/18 08:06:55;;;;;;;0.60;0.60;;;;;;;20.04;63.10;101819.66;5022191;28;20113;-80
2021/09/18 08:09:22;;;;;;;0.95;0.95;;;;;;;20.08;62.83;101817.72;5026140;28;20048;-81
2021/09/18 08:11:49;;;;;;;1.00;0.47;;;;;;;20.08;62.96;101816.84;5025266;28;20064;-91
2021/09/18 08:14:15;;;;;;;0.55;0.55;;;;;;;20.18;62.83;101818.19;5022443;28;20029;-88
2021/09/18 08:16:44;;;;;;;0.08;0.08;;;;;;;20.27;62.76;101828.50;5031032;28;20030;-87
2021/09/18 08:19:10;;;;;;;0.40;0.40;;;;;;;20.36;63.36;101822.72;5023794;28;20029;-87
2021/09/18 08:21:36;;;;;;;0.68;0.68;;;;;;;20.42;62.75;101824.25;5027837;28;20033;-92
2021/09/18 08:24:04;;;;;;;0.60;0.60;;;;;;;20.50;63.02;101818.53;5057616;28;20064;-86
2021/09/18 08:26:34;;;;;;;1.25;0.95;;;;;;;20.64;62.44;101818.75;5037505;28;20030;-89
2021/09/18 08:29:00;;;;;;;0.20;0.20;;;;;;;20.76;62.22;101821.84;5017065;28;20036;-93
2021/09/18 08:31:27;;;;;;;0.43;0.43;;;;;;;20.84;62.30;101819.66;5034829;28;20469;-89
2021/09/18 08:33:54;;;;;;;0.57;0.57;;;;;;;20.93;61.90;101821.91;5036979;28;20044;-92
2021/09/18 08:36:20;;;;;;;0.30;0.30;;;;;;;21.00;62.26;101812.59;5024584;28;20112;-91
2021/09/18 08:38:46;;;;;;;0.30;0.30;;;;;;;21.10;61.80;101823.78;5029217;28;20037;-90
2021/09/18 08:41:14;;;;;;;0.10;0.10;;;;;;;21.19;61.31;101822.47;5030772;28;20095;-92
2021/09/18 08:43:40;;;;;;;0.10;0.10;;;;;;;21.31;61.18;101821.84;5017224;28;20030;-93
2021/09/18 08:46:06;;;;;;;0.70;0.43;;;;;;;21.40;61.32;101822.34;5017671;28;20385;-89
2021/09/18 08:48:33;;;;;;;0.47;0.47;;;;;;;21.50;61.04;101820.94;5017090;28;20200;-86
2021/09/18 08:51:00;;;;;;;1.10;1.08;;;;;;;21.64;60.57;101821.13;5016225;28;20026;-94
2021/09/18 08:53:26;;;;;;;0.17;0.17;;;;;;;21.79;60.28;101826.69;5016903;28;20085;-94
2021/09/18 08:55:54;;;;;;;0.25;0.25;;;;;;;21.97;60.28;101820.31;5016862;28;20436;-90
2021/09/18 08:58:21;;;;;;;0.10;0.10;;;;;;;22.13;59.78;101823.09;5025567;28;20040;-89
2021/09/18 09:00:51;;;;;;;0.10;0.10;;;;;;;22.30;59.36;101816.75;5030301;28;20554;-92
2021/09/18 09:06:12;;;;;;;0.30;0.30;;;;;;;22.58;58.98;101825.22;5071509;28;20402;-88
2021/09/18 09:08:40;;;;;;;0.10;0.10;;;;;;;22.67;58.55;101813.03;5060641;28;20036;-81
2021/09/18 09:11:15;;;;;;;0.52;0.30;;;;;;;22.81;58.67;101821.25;5060838;28;20029;-88
2021/09/18 09:14:03;;;;;;;0.30;0.30;;;;;;;22.94;57.84;101821.41;5061719;28;20032;-87
2021/09/18 09:16:31;;;;;;;0.30;0.30;;;;;;;22.98;57.76;101817.59;5053167;28;20465;-91
2021/09/18 09:19:11;;;;;;;1.67;1.00;;;;;;;23.06;56.96;101817.16;5059331;28;20029;-88
2021/09/18 09:21:46;;;;;;;0.10;0.10;;;;;;;23.35;56.50;101820.03;5071432;28;20036;-90
2021/09/18 09:24:15;;;;;;;1.80;1.05;;;;;;;23.38;54.60;101815.31;5056034;28;20029;-90
2021/09/18 09:27:02;;;;;;;0.20;0.20;;;;;;;23.54;55.08;101820.69;5051647;28;20357;-90
2021/09/18 09:29:50;;;;;;;0.20;0.20;;;;;;;23.77;55.12;101820.28;5059895;28;20025;-91
2021/09/18 09:32:37;;;;;;;0.22;0.22;;;;;;;23.81;55.71;101816.41;5050070;28;20072;-86
2021/09/18 09:35:08;;;;;;;0.20;0.20;;;;;;;23.82;56.23;101823.56;5056698;28;20037;-89
2021/09/18 09:37:35;;;;;;;0.15;0.15;;;;;;;23.73;56.71;101820.44;5055648;28;20055;-85
2021/09/18 09:40:05;;;;;;;0.10;0.10;;;;;;;23.91;56.28;101828.41;5068048;28;20028;-90
2021/09/18 09:42:34;;;;;;;0.90;0.70;;;;;;;24.03;54.35;101826.84;5062353;28;20025;-89
2021/09/18 09:45:19;;;;;;;0.30;0.30;;;;;;;24.21;54.83;101825.69;5069242;28;20060;-90
2021/09/18 09:47:59;;;;;;;0.65;0.45;;;;;;;24.15;54.54;101826.06;5053617;28;20025;-88
2021/09/18 09:50:25;;;;;;;0.40;0.40;;;;;;;24.18;54.76;101834.00;5052556;28;20026;-90
2021/09/18 09:52:54;;;;;;;0.13;0.13;;;;;;;24.19;53.94;101824.91;5051864;28;20128;-91
2021/09/18 09:55:20;;;;;;;0.75;0.75;;;;;;;24.21;55.18;101828.41;5051043;28;20021;-89
2021/09/18 09:57:58;;;;;;;0.35;0.35;;;;;;;24.26;52.58;101835.34;5050854;28;20047;-91
2021/09/18 10:00:34;;;;;;;0.20;0.20;;;;;;;24.22;54.59;101829.25;5050739;28;20083;-93
2021/09/18 10:03:00;;;;;;;0.10;0.10;;;;;;;24.13;54.27;101830.69;5050508;28;20033;-93
2021/09/18 10:05:27;;;;;;;0.98;0.70;;;;;;;24.18;54.44;101828.56;5049986;28;20029;-93
2021/09/18 10:07:53;;;;;;;0.38;0.38;;;;;;;24.27;54.47;101828.97;5049831;28;20052;-92
2021/09/18 10:10:20;;;;;;;0.17;0.17;;;;;;;24.30;51.94;101828.78;5050656;28;20064;-92
2021/09/18 10:12:46;;;;;;;0.20;0.20;;;;;;;24.42;51.69;101833.41;5049704;28;20464;-94
2021/09/18 10:15:12;;;;;;;0.35;0.35;;;;;;;24.44;50.67;101831.50;5049500;28;20398;-92
2021/09/18 10:17:43;;;;;;;0.70;0.65;;;;;;;24.52;51.83;101829.19;5036551;28;20041;-91
2021/09/18 10:20:13;;;;;;;0.30;0.30;;;;;;;24.57;51.92;101830.72;5041413;28;20044;-91
2021/09/18 10:23:14;;;;;;;0.25;0.25;;;;;;;24.64;52.70;101827.50;5036225;28;20538;-90
2021/09/18 10:25:33;;;;;;;0.28;0.28;;;;;;;24.78;52.52;101823.09;5041930;28;20050;-93
2021/09/18 10:28:09;;;;;;;0.10;0.10;;;;;;;24.82;50.17;101820.09;5044475;28;20040;-92
2021/09/18 10:33:32;;;;;;;0.10;0.10;;;;;;;24.94;50.16;101825.66;5075781;28;20432;-92
2021/09/18 10:36:05;;;;;;;0.55;0.55;;;;;;;24.97;51.24;101825.44;5071161;28;20029;-91
2021/09/18 10:38:34;;;;;;;0.10;0.10;;;;;;;24.96;51.41;101821.88;5070216;28;20440;-91
2021/09/18 10:41:05;;;;;;;0.10;0.10;;;;;;;24.90;50.84;101813.25;5071431;28;20524;-91
2021/09/18 10:43:35;;;;;;;0.10;0.10;;;;;;;24.90;50.77;101810.56;5071057;28;20029;-88
2021/09/18 10:46:02;;;;;;;0.10;0.10;;;;;;;24.85;50.70;101819.88;5071117;28;20055;-81
2021/09/18 10:48:47;;;;;;;0.17;0.17;;;;;;;24.95;50.90;101812.00;5070326;28;20025;-84
2021/09/18 10:51:34;;;;;;;0.10;0.10;;;;;;;24.93;51.26;101810.38;5068162;28;20021;-83
2021/09/18 10:57:06;;;;;;;0.20;0.20;;;;;;;25.05;50.63;101798.72;5007989;27;2018293;-81
2021/09/18 10:59:43;;;;;;;0.20;0.20;;;;;;;25.07;49.05;101796.75;5090834;28;20043;-83
2021/09/18 11:05:44;;;;;;;0.10;0.10;;;;;;;25.30;49.28;101794.38;5070481;28;20387;-83
2021/09/18 11:11:04;;;;;;;0.10;0.10;;;;;;;25.55;48.27;101792.72;5062588;28;20725;-84
2021/09/18 11:13:35;;;;;;;0.10;0.10;;;;;;;25.64;49.00;101795.66;5050098;28;20503;-86
2021/09/18 11:16:07;;;;;;;0.10;0.10;;;;;;;25.77;47.25;101798.41;5050455;28;20032;-86
2021/09/18 11:18:57;;;;;;;0.10;0.10;;;;;;;25.95;47.99;101792.66;5050611;28;20264;-85
2021/09/18 11:21:27;;;;;;;0.10;0.10;;;;;;;25.98;47.70;101792.44;5050457;28;20144;-86
2021/09/18 11:23:57;;;;;;;0.10;0.10;;;;;;;26.09;47.50;101794.44;5050710;28;20473;-86
2021/09/18 11:29:33;;;;;;;0.10;0.10;;;;;;;26.41;47.92;101788.53;5136677;27;20391;-85
2021/09/18 11:40:09;;;;;;;0.17;0.17;;;;;;;26.88;46.59;101786.03;5050756;27;20770;-88
2021/09/18 11:45:23;;;;;;;0.10;0.10;;;;;;;27.04;45.73;101785.75;5173892;27;20129;-87
2021/09/18 11:47:53;;;;;;;0.15;0.15;;;;;;;27.02;44.50;101776.88;5173865;27;20030;-87
2021/09/18 11:53:05;;;;;;;0.10;0.10;;;;;;;26.99;43.54;101769.78;5110479;27;20400;-85
2021/09/18 11:55:41;;;;;;;0.20;0.20;;;;;;;26.97;43.91;101771.78;5101350;28;20431;-85
2021/09/18 12:03:39;;;;;;;0.10;0.10;;;;;;;26.94;44.61;101763.81;5074131;27;20414;-84